createdAt,value
2022-09-12T00:06:18.112Z,29.75
2022-09-12T00:08:56.381Z,30.17
2022-09-12T00:11:30.607Z,37.40
2022-09-12T00:14:03.083Z,43.28
2022-09-12T00:16:36.035Z,38.60
2022-09-12T00:19:06.615Z,31.00
2022-09-12T00:21:38.290Z,30.02
2022-09-12T00:24:08.693Z,33.00
2022-09-12T00:26:38.057Z,28.83
2022-09-12T00:29:12.040Z,29.95
2022-09-12T00:31:43.122Z,29.17
2022-09-12T00:34:16.774Z,30.25
2022-09-12T00:36:56.707Z,28.92
2022-09-12T00:39:28.783Z,28.15
2022-09-12T00:42:15.303Z,28.92
2022-09-12T00:44:53.971Z,30.15
2022-09-12T00:47:30.579Z,28.50
2022-09-12T00:50:10.712Z,28.95
2022-09-12T00:52:55.595Z,28.35
2022-09-12T00:55:35.294Z,28.20
2022-09-12T00:58:28.373Z,28.08
2022-09-12T01:01:02.724Z,27.88
2022-09-12T01:03:32.774Z,29.77
2022-09-12T01:06:17.161Z,30.05
2022-09-12T01:08:52.337Z,30.02
2022-09-12T01:11:24.086Z,28.98
2022-09-12T01:13:53.597Z,41.63
2022-09-12T01:16:25.753Z,57.33
2022-09-12T01:19:29.067Z,77.72
2022-09-12T01:22:32.219Z,28.75
2022-09-12T01:25:08.064Z,27.58
2022-09-12T01:28:04.743Z,30.90
2022-09-12T01:31:18.085Z,28.75
2022-09-12T01:34:07.724Z,28.67
2022-09-12T01:36:43.275Z,27.67
2022-09-12T01:39:22.332Z,27.25
2022-09-12T01:42:32.704Z,28.08
2022-09-12T01:45:18.260Z,26.58
2022-09-12T01:48:36.775Z,26.50
2022-09-12T01:51:19.235Z,27.83
2022-09-12T01:54:14.923Z,27.67
2022-09-12T01:56:48.716Z,28.10
2022-09-12T01:59:42.330Z,26.33
2022-09-12T02:02:50.019Z,29.08
2022-09-12T02:05:23.820Z,26.85
2022-09-12T02:08:05.959Z,27.73
2022-09-12T02:10:44.910Z,26.60
2022-09-12T02:13:32.360Z,26.73
2022-09-12T02:16:11.569Z,26.48
2022-09-12T02:18:47.174Z,26.60
2022-09-12T02:21:20.008Z,27.30
2022-09-12T02:23:55.351Z,25.95
2022-09-12T02:26:39.128Z,26.42
2022-09-12T02:29:08.457Z,24.40
2022-09-12T02:32:01.987Z,26.02
2022-09-12T02:34:40.726Z,25.77
2022-09-12T02:37:28.572Z,25.00
2022-09-12T02:40:03.264Z,25.55
2022-09-12T02:42:32.772Z,25.95
2022-09-12T02:45:03.147Z,26.52
2022-09-12T02:47:51.166Z,25.50
2022-09-12T02:50:20.766Z,25.83
2022-09-12T02:52:50.224Z,26.02
2022-09-12T02:55:19.694Z,24.83
2022-09-12T02:57:48.875Z,26.40
2022-09-12T03:00:18.197Z,26.30
2022-09-12T03:03:08.486Z,24.02
2022-09-12T03:06:03.045Z,25.60
2022-09-12T03:08:52.236Z,25.30
2022-09-12T03:11:54.056Z,25.20
2022-09-12T03:14:31.399Z,24.60
2022-09-12T03:17:20.299Z,25.95
2022-09-12T03:19:56.524Z,25.15
2022-09-12T03:22:25.761Z,24.05
2022-09-12T03:25:04.025Z,25.23
2022-09-12T03:27:40.645Z,23.20
2022-09-12T03:30:11.827Z,22.92
2022-09-12T03:32:53.134Z,23.02
2022-09-12T03:35:25.668Z,23.08
2022-09-12T03:37:55.024Z,22.35
2022-09-12T03:40:24.683Z,21.73
2022-09-12T03:42:54.035Z,23.38
2022-09-12T03:45:23.398Z,22.85
2022-09-12T03:47:52.492Z,22.20
2022-09-12T03:50:21.887Z,23.27
2022-09-12T03:52:51.405Z,23.55
2022-09-12T03:55:20.625Z,23.73
2022-09-12T03:57:49.785Z,23.27
2022-09-12T04:00:19.940Z,22.90
2022-09-12T04:02:49.348Z,23.25
2022-09-12T04:05:18.408Z,22.67
2022-09-12T04:07:51.319Z,23.77
2022-09-12T04:10:35.376Z,22.92
2022-09-12T04:13:19.581Z,22.38
2022-09-12T04:16:03.367Z,23.42
2022-09-12T04:18:33.219Z,22.55
2022-09-12T04:21:12.626Z,22.88
2022-09-12T04:23:42.185Z,22.65
2022-09-12T04:26:14.486Z,22.25
2022-09-12T04:28:44.178Z,21.75
2022-09-12T04:31:21.661Z,19.90
2022-09-12T04:33:58.997Z,20.17
2022-09-12T04:36:32.076Z,19.73
2022-09-12T04:39:03.019Z,19.67
2022-09-12T04:41:35.363Z,18.42
2022-09-12T04:44:08.366Z,19.70
2022-09-12T04:46:39.761Z,17.67
2022-09-12T04:49:11.227Z,17.42
2022-09-12T04:51:42.781Z,17.85
2022-09-12T04:54:19.887Z,16.85
2022-09-12T04:56:51.873Z,18.15
2022-09-12T04:59:22.986Z,18.10
2022-09-12T05:01:52.985Z,17.98
2022-09-12T05:04:22.478Z,17.67
2022-09-12T05:06:51.839Z,14.48
2022-09-12T05:09:24.398Z,14.98
2022-09-12T05:12:04.923Z,14.30
2022-09-12T05:14:35.739Z,14.50
2022-09-12T05:17:06.928Z,14.50
2022-09-12T05:19:36.359Z,14.80
2022-09-12T05:22:07.585Z,14.63
2022-09-12T05:24:38.773Z,13.18
2022-09-12T05:27:08.324Z,13.35
2022-09-12T05:29:37.442Z,13.43
2022-09-12T05:32:06.794Z,12.63
2022-09-12T05:34:35.961Z,12.25
2022-09-12T05:37:05.296Z,12.68
2022-09-12T05:39:34.742Z,12.20
2022-09-12T05:42:07.452Z,11.52
2022-09-12T05:44:36.545Z,12.38
2022-09-12T05:47:05.785Z,12.90
2022-09-12T05:49:37.164Z,12.48
2022-09-12T05:52:06.386Z,11.90
2022-09-12T05:54:35.562Z,12.70
2022-09-12T05:57:04.780Z,12.05
2022-09-12T05:59:33.905Z,11.65
2022-09-12T06:02:06.646Z,11.43
2022-09-12T06:04:43.129Z,12.07
2022-09-12T06:07:12.809Z,12.15
2022-09-12T06:09:45.155Z,11.68
2022-09-12T06:12:14.693Z,12.10
2022-09-12T06:14:44.401Z,11.45
2022-09-12T06:17:13.753Z,13.88
2022-09-12T06:19:43.517Z,12.63
2022-09-12T06:22:12.978Z,12.75
2022-09-12T06:24:42.291Z,12.00
2022-09-12T06:27:12.444Z,11.65
2022-09-12T06:29:41.716Z,11.60
2022-09-12T06:32:12.087Z,12.68
2022-09-12T06:34:41.480Z,11.63
2022-09-12T06:37:10.836Z,11.73
2022-09-12T06:39:40.367Z,11.60
2022-09-12T06:42:09.609Z,11.75
2022-09-12T06:44:38.990Z,11.80
2022-09-12T06:47:10.483Z,12.80
2022-09-12T06:49:39.714Z,11.30
2022-09-12T06:52:08.800Z,12.55
2022-09-12T06:54:38.018Z,11.85
2022-09-12T06:57:08.185Z,11.77
2022-09-12T06:59:37.369Z,11.02
2022-09-12T07:02:06.561Z,11.88
2022-09-12T07:04:37.587Z,11.68
2022-09-12T07:07:07.378Z,11.35
2022-09-12T07:09:36.630Z,12.05
2022-09-12T07:12:07.132Z,12.43
2022-09-12T07:14:36.806Z,12.45
2022-09-12T07:17:08.263Z,12.68
2022-09-12T07:19:38.335Z,12.32
2022-09-12T07:22:07.716Z,13.10
2022-09-12T07:24:36.814Z,13.18
2022-09-12T07:27:05.989Z,12.77
2022-09-12T07:29:37.750Z,12.13
2022-09-12T07:32:08.048Z,13.10
2022-09-12T07:34:37.729Z,11.48
2022-09-12T07:37:06.962Z,11.55
2022-09-12T07:39:36.368Z,11.55
2022-09-12T07:42:05.841Z,12.00
2022-09-12T07:44:35.086Z,12.23
2022-09-12T07:47:04.739Z,11.85
2022-09-12T07:49:34.073Z,12.15
2022-09-12T07:52:03.539Z,12.43
2022-09-12T07:54:34.325Z,12.65
2022-09-12T07:57:04.461Z,13.18
2022-09-12T07:59:51.887Z,12.07
2022-09-12T08:02:21.975Z,12.50
2022-09-12T08:04:52.317Z,12.52
2022-09-12T08:07:22.040Z,11.80
2022-09-12T08:09:51.242Z,12.40
2022-09-12T08:12:21.271Z,11.98
2022-09-12T08:14:50.561Z,12.48
2022-09-12T08:17:19.780Z,12.18
2022-09-12T08:19:49.366Z,11.63
2022-09-12T08:22:22.893Z,12.45
2022-09-12T08:24:55.019Z,12.80
2022-09-12T08:27:24.308Z,11.05
2022-09-12T08:29:54.590Z,14.43
2022-09-12T08:32:23.800Z,11.95
2022-09-12T08:34:52.868Z,11.02
2022-09-12T08:37:22.277Z,11.65
2022-09-12T08:39:52.265Z,12.77
2022-09-12T08:42:44.939Z,11.02
2022-09-12T08:45:21.641Z,12.43
2022-09-12T08:47:51.833Z,11.95
2022-09-12T08:50:23.483Z,12.23
2022-09-12T08:53:14.350Z,11.18
2022-09-12T08:55:59.731Z,13.32
2022-09-12T08:58:30.535Z,11.45
2022-09-12T09:01:15.342Z,11.93
2022-09-12T09:04:06.761Z,11.93
2022-09-12T09:06:55.815Z,13.20
2022-09-12T09:10:16.832Z,13.23
2022-09-12T09:12:58.949Z,12.68
2022-09-12T09:16:00.333Z,13.30
2022-09-12T09:18:36.664Z,12.20
2022-09-12T09:21:25.569Z,12.57
2022-09-12T09:24:03.435Z,12.18
2022-09-12T09:27:11.054Z,12.57
2022-09-12T09:29:53.235Z,12.05
2022-09-12T09:32:34.796Z,13.07
2022-09-12T09:35:32.140Z,13.32
2022-09-12T09:38:46.953Z,12.65
2022-09-12T09:41:37.195Z,12.15
2022-09-12T09:46:36.096Z,11.85
2022-09-12T09:49:08.076Z,12.98
2022-09-12T09:51:40.542Z,12.52
2022-09-12T09:54:24.486Z,11.75
2022-09-12T09:56:53.725Z,11.77
2022-09-12T09:59:37.164Z,12.02
2022-09-12T10:02:15.494Z,11.48
2022-09-12T10:04:56.782Z,12.27
2022-09-12T10:07:27.467Z,11.80
2022-09-12T10:10:29.380Z,11.85
2022-09-12T10:13:24.757Z,11.85
2022-09-12T10:16:03.579Z,12.80
2022-09-12T10:18:43.223Z,11.85
2022-09-12T10:21:41.500Z,14.18
2022-09-12T10:24:30.332Z,13.00
2022-09-12T10:27:15.538Z,12.73
2022-09-12T10:29:50.926Z,13.00
2022-09-12T10:32:31.037Z,13.65
2022-09-12T10:35:07.230Z,13.25
2022-09-12T10:37:41.537Z,12.95
2022-09-12T10:40:29.774Z,14.25
2022-09-12T10:43:01.448Z,14.63
2022-09-12T10:45:36.833Z,13.23
2022-09-12T10:48:27.898Z,14.30
2022-09-12T10:51:00.385Z,13.73
2022-09-12T10:53:49.858Z,14.70
2022-09-12T10:57:01.909Z,13.13
2022-09-12T10:59:54.368Z,13.50
2022-09-12T11:02:48.486Z,14.02
2022-09-12T11:05:33.017Z,13.30
2022-09-12T11:08:13.884Z,13.50
2022-09-12T11:11:15.496Z,12.98
2022-09-12T11:14:39.934Z,13.70
2022-09-12T11:17:47.219Z,13.48
2022-09-12T11:20:55.013Z,13.00
2022-09-12T11:23:36.447Z,13.95
2022-09-12T11:26:18.200Z,12.73
2022-09-12T11:29:31.712Z,12.80
2022-09-12T11:32:22.829Z,14.43
2022-09-12T11:35:17.535Z,12.98
2022-09-12T11:38:25.926Z,12.15
2022-09-12T11:41:00.598Z,13.10
2022-09-12T11:43:52.716Z,11.80
2022-09-12T11:46:40.189Z,12.48
2022-09-12T11:49:14.787Z,13.82
2022-09-12T11:52:22.127Z,12.65
2022-09-12T11:55:18.047Z,11.90
2022-09-12T11:58:08.843Z,13.15
2022-09-12T12:00:45.849Z,12.55
2022-09-12T12:03:38.522Z,12.95
2022-09-12T12:06:22.505Z,12.50
2022-09-12T12:08:51.917Z,13.15
2022-09-12T12:11:30.182Z,12.43
2022-09-12T12:14:22.933Z,12.85
2022-09-12T12:16:52.545Z,12.30
2022-09-12T12:19:40.007Z,15.05
2022-09-12T12:22:18.202Z,12.88
2022-09-12T12:25:04.296Z,11.98
2022-09-12T12:27:56.456Z,13.00
2022-09-12T12:30:31.907Z,12.43
2022-09-12T12:33:09.608Z,14.15
2022-09-12T12:35:47.212Z,12.85
2022-09-12T12:38:31.036Z,13.38
2022-09-12T12:41:18.547Z,12.38
2022-09-12T12:43:58.525Z,13.45
2022-09-12T12:46:30.458Z,11.98
2022-09-12T12:49:25.837Z,12.55
2022-09-12T12:51:57.648Z,13.68
2022-09-12T12:54:35.179Z,12.63
2022-09-12T12:57:17.266Z,13.82
2022-09-12T12:59:57.586Z,12.48
2022-09-12T13:02:38.421Z,12.52
2022-09-12T13:05:23.038Z,12.95
2022-09-12T13:08:08.305Z,14.25
2022-09-12T13:10:38.739Z,13.00
2022-09-12T13:13:10.979Z,14.85
2022-09-12T13:15:40.641Z,13.25
2022-09-12T13:18:16.722Z,13.43
2022-09-12T13:20:56.861Z,13.15
2022-09-12T13:23:33.634Z,13.38
2022-09-12T13:26:04.319Z,13.80
2022-09-12T13:28:33.763Z,13.20
2022-09-12T13:31:27.128Z,13.55
2022-09-12T13:34:00.862Z,12.40
2022-09-12T13:36:56.386Z,13.25
2022-09-12T13:39:59.754Z,13.60
2022-09-12T13:42:43.530Z,14.40
2022-09-12T13:45:28.728Z,14.85
2022-09-12T13:48:02.885Z,15.05
2022-09-12T13:50:59.169Z,14.68
2022-09-12T13:53:33.378Z,14.77
2022-09-12T13:56:02.915Z,15.93
2022-09-12T13:58:36.125Z,16.17
2022-09-12T14:01:14.982Z,16.15
2022-09-12T14:04:14.685Z,16.38
2022-09-12T14:06:50.995Z,16.48
2022-09-12T14:09:34.620Z,17.08
2022-09-12T14:12:04.263Z,17.10
2022-09-12T14:14:47.140Z,16.48
2022-09-12T14:17:23.027Z,17.02
2022-09-12T14:19:53.747Z,17.27
2022-09-12T14:22:23.591Z,16.33
2022-09-12T14:24:54.795Z,16.23
2022-09-12T14:27:31.104Z,15.77
2022-09-12T14:30:35.694Z,14.75
2022-09-12T14:33:13.668Z,15.63
2022-09-12T14:35:45.092Z,17.02
2022-09-12T14:38:17.339Z,16.90
2022-09-12T14:40:51.606Z,16.05
2022-09-12T14:43:28.250Z,17.23
2022-09-12T14:46:16.174Z,17.02
2022-09-12T14:48:51.024Z,16.55
2022-09-12T14:51:26.168Z,16.40
2022-09-12T14:53:56.015Z,18.60
2022-09-12T14:56:43.389Z,16.85
2022-09-12T14:59:32.190Z,15.65
2022-09-12T15:03:01.418Z,17.13
2022-09-12T15:10:12.305Z,16.80
2022-09-12T15:12:50.918Z,15.73
2022-09-12T15:15:43.139Z,15.48
2022-09-12T15:18:14.777Z,15.52
2022-09-12T15:20:46.793Z,16.13
2022-09-12T15:23:34.039Z,15.98
2022-09-12T15:26:04.881Z,16.15
2022-09-12T15:28:40.614Z,15.40
2022-09-12T15:31:32.219Z,16.20
2022-09-12T15:34:20.443Z,15.82
2022-09-12T15:40:56.752Z,15.23
2022-09-12T15:43:27.127Z,15.20
2022-09-12T15:45:56.505Z,15.20
2022-09-12T15:48:25.639Z,16.35
2022-09-12T15:50:55.194Z,14.30
2022-09-12T15:53:24.560Z,15.30
2022-09-12T15:55:53.782Z,15.77
2022-09-12T15:58:23.428Z,16.13
2022-09-12T16:00:52.694Z,16.00
2022-09-12T16:03:31.840Z,15.82
2022-09-12T16:06:04.118Z,14.55
2022-09-12T16:08:33.881Z,15.45
2022-09-12T16:11:27.031Z,15.60
2022-09-12T16:13:57.694Z,15.40
2022-09-12T16:16:27.175Z,14.27
2022-09-12T16:18:56.512Z,14.95
2022-09-12T16:21:27.066Z,15.68
2022-09-12T16:23:56.378Z,15.18
2022-09-12T16:26:25.424Z,16.63
2022-09-12T16:29:01.631Z,15.32
2022-09-12T16:31:31.914Z,18.27
2022-09-12T16:34:01.209Z,17.67
2022-09-12T16:36:30.970Z,15.52
2022-09-12T16:39:00.339Z,16.20
2022-09-12T16:41:29.704Z,15.77
2022-09-12T16:44:02.610Z,15.10
2022-09-12T16:46:31.860Z,14.82
2022-09-12T16:49:02.182Z,15.68
2022-09-12T16:51:38.867Z,15.02
2022-09-12T16:54:08.198Z,15.85
2022-09-12T16:56:37.281Z,16.77
2022-09-12T16:59:07.546Z,14.57
2022-09-12T17:01:37.254Z,16.80
2022-09-12T17:04:06.628Z,15.27
2022-09-12T17:06:36.034Z,14.80
2022-09-12T17:09:05.810Z,13.63
2022-09-12T17:11:40.191Z,15.20
2022-09-12T17:14:09.948Z,14.88
2022-09-12T17:16:49.254Z,14.38
2022-09-12T17:19:25.347Z,15.65
2022-09-12T17:21:55.262Z,14.10
2022-09-12T17:25:01.703Z,14.23
2022-09-12T17:27:33.816Z,14.18
2022-09-12T17:30:11.300Z,15.88
2022-09-12T17:32:42.581Z,15.70
2022-09-12T17:35:15.734Z,13.68
2022-09-12T17:37:47.449Z,13.82
2022-09-12T17:40:48.814Z,14.77
2022-09-12T17:43:29.113Z,14.32
2022-09-12T17:45:59.831Z,14.32
2022-09-12T17:48:46.384Z,14.95
2022-09-12T17:51:48.782Z,14.48
2022-09-12T17:54:26.474Z,13.48
2022-09-12T17:56:57.153Z,14.20
2022-09-12T17:59:26.659Z,13.63
2022-09-12T18:02:15.218Z,14.48
2022-09-12T18:04:49.260Z,14.20
2022-09-12T18:07:29.468Z,13.65
2022-09-12T18:09:59.530Z,14.50
2022-09-12T18:12:28.952Z,14.00
2022-09-12T18:14:58.100Z,14.05
2022-09-12T18:17:28.336Z,14.20
2022-09-12T18:19:57.900Z,13.43
2022-09-12T18:22:27.043Z,13.93
2022-09-12T18:24:56.243Z,14.13
2022-09-12T18:27:25.402Z,15.55
2022-09-12T18:30:17.122Z,13.98
2022-09-12T18:32:53.426Z,14.52
2022-09-12T18:35:28.238Z,14.43
2022-09-12T18:37:57.947Z,14.32
2022-09-12T18:40:27.452Z,13.77
2022-09-12T18:42:57.313Z,15.63
2022-09-12T18:48:06.948Z,13.45
2022-09-12T18:50:36.158Z,14.40
2022-09-12T18:53:05.374Z,12.23
2022-09-12T18:55:37.948Z,14.73
2022-09-12T18:58:10.378Z,14.52
2022-09-12T19:00:41.891Z,13.82
2022-09-12T19:03:11.518Z,13.63
2022-09-12T19:05:40.949Z,14.40
2022-09-12T19:08:10.343Z,14.80
2022-09-12T19:10:39.898Z,15.52
2022-09-12T19:13:11.861Z,12.43
2022-09-12T19:15:42.946Z,14.40
2022-09-12T19:18:16.750Z,14.23
2022-09-12T19:20:53.124Z,14.85
2022-09-12T19:25:59.521Z,13.77
2022-09-12T19:28:29.789Z,14.80
2022-09-12T19:31:05.042Z,14.75
2022-09-12T19:33:34.762Z,13.57
2022-09-12T19:36:17.508Z,15.02
2022-09-12T19:38:59.638Z,14.70
2022-09-12T19:41:28.970Z,14.60
2022-09-12T19:43:58.868Z,14.65
2022-09-12T19:46:28.238Z,15.27
2022-09-12T19:48:57.576Z,14.80
2022-09-12T19:51:26.882Z,14.82
2022-09-12T19:53:56.278Z,15.70
2022-09-12T19:56:25.371Z,14.23
2022-09-12T19:58:56.718Z,15.05
2022-09-12T20:01:31.875Z,14.52
2022-09-12T20:04:07.513Z,15.38
2022-09-12T20:06:37.553Z,13.65
2022-09-12T20:09:09.998Z,14.52
2022-09-12T20:23:42.448Z,15.68
2022-09-12T20:26:25.824Z,14.55
2022-09-12T20:29:02.163Z,14.93
2022-09-12T20:31:35.470Z,14.57
2022-09-12T20:34:05.852Z,14.13
2022-09-12T20:36:35.347Z,15.30
2022-09-12T20:39:04.671Z,15.05
2022-09-12T20:41:37.125Z,16.40
2022-09-12T20:44:06.478Z,15.18
2022-09-12T20:46:35.927Z,15.05
2022-09-12T20:49:06.166Z,15.45
2022-09-12T20:51:35.840Z,15.60
2022-09-12T20:54:08.997Z,14.70
2022-09-12T20:56:39.270Z,15.60
2022-09-12T20:59:20.824Z,14.93
2022-09-12T21:01:56.458Z,15.52
2022-09-12T21:04:26.188Z,15.52
2022-09-12T21:06:55.606Z,14.32
2022-09-12T21:09:24.977Z,14.73
2022-09-12T21:11:54.467Z,15.82
2022-09-12T21:14:23.703Z,15.98
2022-09-12T21:16:53.346Z,14.57
2022-09-12T21:19:47.705Z,14.43
2022-09-12T21:22:21.158Z,15.05
2022-09-12T21:24:50.691Z,15.85
2022-09-12T21:27:21.291Z,13.68
2022-09-12T21:29:51.454Z,15.13
2022-09-12T21:32:22.296Z,15.82
2022-09-12T21:34:51.535Z,14.55
2022-09-12T21:37:23.842Z,14.45
2022-09-12T21:39:53.030Z,15.55
2022-09-12T21:42:22.176Z,16.80
2022-09-12T21:44:53.012Z,15.80
2022-09-12T21:47:22.127Z,14.18
2022-09-12T21:49:53.677Z,14.93
2022-09-12T21:52:23.020Z,15.57
2022-09-12T21:54:52.164Z,15.20
2022-09-12T21:57:23.025Z,14.80
2022-09-12T21:59:52.395Z,15.85
2022-09-12T22:02:23.972Z,15.73
2022-09-12T22:04:53.369Z,15.90
2022-09-12T22:07:24.254Z,15.35
2022-09-12T22:09:53.843Z,16.20
2022-09-12T22:12:23.375Z,16.23
2022-09-12T22:14:52.759Z,16.25
2022-09-12T22:17:25.392Z,16.10
2022-09-12T22:19:54.654Z,15.30
2022-09-12T22:22:42.961Z,14.55
2022-09-12T22:25:15.045Z,16.25
2022-09-12T22:27:44.391Z,15.32
2022-09-12T22:30:13.973Z,15.50
2022-09-12T22:32:43.215Z,15.30
2022-09-12T22:35:12.492Z,14.90
2022-09-12T22:37:41.677Z,15.02
2022-09-12T22:40:14.432Z,16.50
2022-09-12T22:42:43.682Z,17.10
2022-09-12T22:45:13.486Z,16.38
2022-09-12T22:47:42.750Z,15.30
2022-09-12T22:50:11.883Z,14.65
2022-09-12T22:52:41.504Z,14.93
2022-09-12T22:55:10.859Z,15.13
2022-09-12T22:57:40.642Z,15.27
2022-09-12T23:00:14.135Z,15.73
2022-09-12T23:02:44.398Z,15.20
2022-09-12T23:05:14.079Z,16.02
2022-09-12T23:07:45.912Z,15.10
2022-09-12T23:10:18.129Z,16.35
2022-09-12T23:12:47.458Z,15.02
2022-09-12T23:15:16.711Z,15.55
2022-09-12T23:17:46.775Z,16.05
2022-09-12T23:20:16.102Z,17.10
2022-09-12T23:22:45.250Z,15.18
2022-09-12T23:25:14.717Z,16.33
2022-09-12T23:27:44.207Z,15.35
2022-09-12T23:30:21.346Z,14.80
2022-09-12T23:32:50.727Z,16.63
2022-09-12T23:35:24.706Z,16.42
2022-09-12T23:37:56.487Z,15.50
2022-09-12T23:40:28.735Z,15.65
2022-09-12T23:42:57.981Z,16.50
2022-09-12T23:45:27.579Z,18.75
2022-09-12T23:47:56.887Z,16.75
2022-09-12T23:50:26.269Z,16.95
2022-09-12T23:52:58.457Z,18.63
2022-09-12T23:55:27.990Z,18.55
2022-09-12T23:57:57.081Z,18.27
